Stony Battery, Virginia
Current Conditions -  °F | °C
As of 3:55 PM on Tuesday 27 Jan 2015 (Local Time) from KMKJ Reporting Station
Clear Clear  
Wind Chill: 20°   Ceiling: Unl
Heat Index: 33°   Visibility: 10mi
Dew Point:   Wind: 21mph
Humidity: 34%   Direction: 270°W
Pressure: 29.86"   Gusts: 29mph
Location:  36.8339°N, 81.5195°W
Report Text: KMKJ 272055Z AUTO 27018G25KT 10SM CLR 00/M14 A2986 RMK AO2 T00031141
Loading
Personal Weather Stations






























Interactive Weather Map New forecast layout! Learn more

10-Day Weather Forecast

Advertisements
Track Severe Weather on mobile